createdAt,value
2019-02-12T00:01:02.909Z,17.98
2019-02-12T00:03:32.119Z,18.12
2019-02-12T00:06:01.479Z,23.05
2019-02-12T00:08:30.717Z,13.28
2019-02-12T00:11:00.234Z,16.62
2019-02-12T00:13:29.490Z,14.63
2019-02-12T00:15:58.677Z,11.05
2019-02-12T00:18:27.886Z,18.85
2019-02-12T00:20:57.057Z,22.48
2019-02-12T00:23:26.255Z,13.45
2019-02-12T00:25:55.460Z,20.60
2019-02-12T00:28:24.668Z,14.47
2019-02-12T00:30:53.883Z,12.85
2019-02-12T00:33:23.047Z,11.85
2019-02-12T00:35:52.229Z,16.00
2019-02-12T00:38:21.435Z,17.80
2019-02-12T00:40:50.637Z,23.67
2019-02-12T00:43:19.818Z,19.10
2019-02-12T00:45:49.069Z,17.35
2019-02-12T00:48:18.309Z,16.37
2019-02-12T00:50:47.499Z,18.35
2019-02-12T00:53:16.677Z,23.75
2019-02-12T00:55:45.928Z,15.88
2019-02-12T00:58:15.069Z,17.57
2019-02-12T01:00:44.229Z,13.40
2019-02-12T01:03:13.392Z,20.82
2019-02-12T01:05:42.572Z,22.37
2019-02-12T01:08:11.777Z,29.15
2019-02-12T01:10:40.917Z,17.55
2019-02-12T01:13:10.189Z,25.48
2019-02-12T01:15:39.432Z,17.27
2019-02-12T01:18:08.589Z,18.00
2019-02-12T01:20:37.975Z,16.42
2019-02-12T01:23:14.824Z,18.20
2019-02-12T01:25:44.002Z,27.80
2019-02-12T01:28:13.277Z,18.77
2019-02-12T01:30:42.460Z,23.83
2019-02-12T01:33:12.971Z,15.43
2019-02-12T01:35:42.180Z,28.52
2019-02-12T01:38:11.437Z,17.37
2019-02-12T01:40:40.775Z,18.55
2019-02-12T01:43:09.923Z,12.88
2019-02-12T01:45:39.099Z,18.25
2019-02-12T01:48:08.425Z,22.37
2019-02-12T01:50:37.595Z,18.35
2019-02-12T01:53:06.869Z,15.90
2019-02-12T01:55:36.101Z,18.55
2019-02-12T01:58:05.287Z,17.42
2019-02-12T02:00:34.573Z,23.38
2019-02-12T02:03:03.801Z,15.28
2019-02-12T02:05:32.935Z,21.73
2019-02-12T02:08:02.483Z,16.17
2019-02-12T02:10:31.656Z,28.87
2019-02-12T02:13:00.842Z,18.35
2019-02-12T02:15:30.093Z,16.37
2019-02-12T02:17:59.412Z,19.27
2019-02-12T02:20:28.697Z,16.80
2019-02-12T02:22:57.871Z,19.23
2019-02-12T02:25:27.083Z,23.65
2019-02-12T02:27:56.231Z,17.40
2019-02-12T02:30:25.428Z,15.43
2019-02-12T02:32:54.645Z,14.03
2019-02-12T02:35:24.014Z,19.25
2019-02-12T02:37:53.121Z,23.25
2019-02-12T02:40:22.284Z,25.80
2019-02-12T02:42:51.459Z,27.65
2019-02-12T02:45:20.647Z,19.40
2019-02-12T02:47:49.794Z,14.05
2019-02-12T02:50:19.015Z,19.77
2019-02-12T02:52:48.247Z,11.60
2019-02-12T02:55:17.415Z,19.92
2019-02-12T02:57:46.627Z,17.73
2019-02-12T03:00:15.786Z,11.38
2019-02-12T03:02:45.024Z,19.12
2019-02-12T03:05:14.214Z,20.15
2019-02-12T03:07:43.370Z,18.12
2019-02-12T03:10:12.845Z,16.67
2019-02-12T03:12:42.150Z,17.75
2019-02-12T03:15:11.609Z,28.50
2019-02-12T03:17:40.731Z,19.73
2019-02-12T03:20:10.956Z,16.97
2019-02-12T03:22:40.167Z,21.60
2019-02-12T03:25:09.580Z,15.65
2019-02-12T03:27:38.865Z,17.12
2019-02-12T03:30:08.873Z,18.37
2019-02-12T03:32:38.271Z,17.37
2019-02-12T03:35:07.926Z,15.60
2019-02-12T03:37:37.152Z,14.65
2019-02-12T03:40:07.292Z,19.23
2019-02-12T03:42:36.435Z,18.52
2019-02-12T03:45:05.960Z,20.10
2019-02-12T03:47:35.166Z,18.67
2019-02-12T03:50:04.567Z,22.30
2019-02-12T03:52:33.714Z,28.45
2019-02-12T03:55:02.860Z,15.98
2019-02-12T03:57:32.190Z,27.80
2019-02-12T04:00:01.605Z,27.02
2019-02-12T04:02:30.790Z,19.67
2019-02-12T04:04:59.956Z,26.65
2019-02-12T04:07:29.092Z,19.98
2019-02-12T04:09:58.284Z,19.52
2019-02-12T04:12:27.494Z,16.07
2019-02-12T04:14:56.695Z,23.25
2019-02-12T04:17:25.918Z,21.70
2019-02-12T04:19:55.480Z,22.17
2019-02-12T04:22:24.681Z,28.92
2019-02-12T04:24:56.226Z,22.80
2019-02-12T04:27:26.209Z,18.27
2019-02-12T04:29:55.358Z,21.10
2019-02-12T04:32:24.546Z,17.23
2019-02-12T04:34:53.715Z,17.12
2019-02-12T04:37:22.861Z,20.97
2019-02-12T04:39:51.965Z,20.32
2019-02-12T04:42:21.132Z,27.10
2019-02-12T04:44:50.378Z,25.60
2019-02-12T04:47:19.615Z,23.85
2019-02-12T04:49:48.765Z,26.05
2019-02-12T04:52:18.031Z,24.25
2019-02-12T04:54:47.143Z,26.68
2019-02-12T04:57:16.368Z,23.55
2019-02-12T04:59:45.549Z,21.35
2019-02-12T05:02:14.822Z,22.98
2019-02-12T05:04:44.013Z,21.33
2019-02-12T05:07:13.211Z,24.63
2019-02-12T05:09:43.896Z,18.25
2019-02-12T05:12:14.560Z,23.57
2019-02-12T05:14:43.698Z,16.52
2019-02-12T05:17:12.806Z,25.80
2019-02-12T05:19:41.964Z,18.40
2019-02-12T05:22:11.111Z,16.48
2019-02-12T05:24:40.306Z,22.62
2019-02-12T05:27:09.538Z,21.70
2019-02-12T05:29:38.620Z,28.50
2019-02-12T05:32:07.882Z,21.42
2019-02-12T05:34:37.099Z,27.20
2019-02-12T05:37:06.288Z,18.15
2019-02-12T05:39:35.405Z,19.85
2019-02-12T05:42:04.586Z,20.32
2019-02-12T05:44:33.802Z,25.45
2019-02-12T05:47:02.979Z,28.80
2019-02-12T05:49:32.143Z,23.47
2019-02-12T05:52:01.171Z,21.10
2019-02-12T05:54:30.280Z,23.62
2019-02-12T05:56:59.527Z,18.60
2019-02-12T05:59:28.685Z,18.37
2019-02-12T06:01:57.900Z,23.80
2019-02-12T06:04:27.067Z,28.87
2019-02-12T06:06:56.305Z,27.50
2019-02-12T06:09:25.515Z,18.77
2019-02-12T06:11:54.641Z,22.67
2019-02-12T06:14:23.779Z,29.85
2019-02-12T06:16:53.010Z,28.52
2019-02-12T06:19:22.237Z,20.88
2019-02-12T06:21:51.763Z,23.75
2019-02-12T06:24:20.906Z,35.20
2019-02-12T06:26:50.108Z,23.80
2019-02-12T06:29:19.363Z,23.32
2019-02-12T06:31:48.570Z,28.25
2019-02-12T06:34:18.172Z,25.72
2019-02-12T06:36:47.412Z,22.40
2019-02-12T06:39:16.647Z,31.45
2019-02-12T06:41:45.783Z,22.48
2019-02-12T06:44:15.051Z,22.35
2019-02-12T06:46:44.313Z,23.25
2019-02-12T06:49:13.742Z,36.55
2019-02-12T06:51:42.867Z,25.15
2019-02-12T06:54:15.014Z,21.73
2019-02-12T06:56:44.243Z,28.27
2019-02-12T06:59:13.767Z,31.40
2019-02-12T07:01:43.432Z,26.20
2019-02-12T07:04:21.487Z,22.50
2019-02-12T07:07:35.723Z,21.25
2019-02-12T07:10:18.853Z,21.12
2019-02-12T07:13:50.419Z,16.45
2019-02-12T07:17:06.341Z,18.30
2019-02-12T07:20:10.125Z,19.98
2019-02-12T07:23:24.774Z,20.10
2019-02-12T07:26:27.003Z,21.97
2019-02-12T07:29:23.760Z,26.68
2019-02-12T07:32:45.292Z,28.77
2019-02-12T07:35:57.320Z,26.12
2019-02-12T07:39:07.705Z,22.62
2019-02-12T07:42:12.851Z,26.85
2019-02-12T07:45:23.264Z,21.80
2019-02-12T07:48:28.310Z,23.30
2019-02-12T07:51:03.231Z,18.48
2019-02-12T07:54:28.630Z,26.95
2019-02-12T07:57:27.477Z,21.77
2019-02-12T08:00:32.635Z,29.72
2019-02-12T08:03:48.132Z,24.55
2019-02-12T08:06:54.273Z,26.42
2019-02-12T08:10:21.628Z,22.27
2019-02-12T08:13:27.906Z,26.97
2019-02-12T08:16:12.493Z,23.42
2019-02-12T08:19:25.275Z,22.37
2019-02-12T08:22:31.345Z,21.05
2019-02-12T08:25:55.146Z,21.90
2019-02-12T08:28:49.598Z,20.12
2019-02-12T08:31:37.177Z,26.35
2019-02-12T08:34:24.571Z,23.15
2019-02-12T08:37:38.302Z,24.92
2019-02-12T08:40:44.251Z,21.97
2019-02-12T08:43:54.489Z,27.40
2019-02-12T08:46:53.406Z,27.02
2019-02-12T08:49:53.581Z,29.35
2019-02-12T08:53:04.470Z,25.88
2019-02-12T08:56:11.033Z,27.62
2019-02-12T08:59:07.830Z,24.82
2019-02-12T09:01:59.822Z,29.82
2019-02-12T09:05:13.354Z,32.35
2019-02-12T09:07:58.776Z,34.60
2019-02-12T09:11:07.066Z,36.85
2019-02-12T09:13:51.346Z,30.90
2019-02-12T09:17:19.983Z,36.40
2019-02-12T09:20:45.608Z,42.80
2019-02-12T09:24:00.049Z,31.77
2019-02-12T09:26:59.569Z,31.30
2019-02-12T09:29:57.553Z,24.92
2019-02-12T09:33:25.575Z,33.35
2019-02-12T09:36:30.628Z,36.10
2019-02-12T09:39:30.638Z,26.70
2019-02-12T09:42:27.368Z,27.27
2019-02-12T09:45:29.015Z,35.75
2019-02-12T09:48:29.181Z,30.80
2019-02-12T09:51:37.114Z,24.23
2019-02-12T09:54:22.813Z,28.77
2019-02-12T09:57:29.059Z,32.25
2019-02-12T10:00:48.538Z,28.40
2019-02-12T10:04:03.760Z,35.43
2019-02-12T10:07:17.272Z,31.30
2019-02-12T10:10:11.630Z,31.65
2019-02-12T10:13:11.424Z,26.87
2019-02-12T10:16:09.060Z,44.67
2019-02-12T10:19:28.514Z,32.10
2019-02-12T10:22:31.076Z,30.05
2019-02-12T10:25:16.951Z,34.75
2019-02-12T10:27:58.696Z,36.58
2019-02-12T10:31:01.085Z,33.08
2019-02-12T10:33:30.392Z,25.00
2019-02-12T10:36:02.001Z,26.57
2019-02-12T10:38:33.370Z,30.20
2019-02-12T10:41:02.607Z,28.65
2019-02-12T10:43:31.955Z,30.32
2019-02-12T10:46:01.396Z,37.93
2019-02-12T10:48:32.326Z,41.50
2019-02-12T10:51:01.732Z,44.23
2019-02-12T10:53:33.541Z,32.35
2019-02-12T10:56:04.591Z,29.87
2019-02-12T10:58:34.753Z,35.55
2019-02-12T11:01:04.179Z,35.03
2019-02-12T11:03:33.465Z,29.15
2019-02-12T11:06:02.687Z,33.90
2019-02-12T11:08:33.453Z,26.05
2019-02-12T11:11:03.669Z,30.37
2019-02-12T11:13:33.345Z,32.93
2019-02-12T11:16:02.671Z,35.45
2019-02-12T11:18:34.972Z,37.05
2019-02-12T11:21:11.664Z,29.52
2019-02-12T11:23:35.629Z,38.92
2019-02-12T11:26:04.801Z,32.00
2019-02-12T11:28:34.043Z,34.03
2019-02-12T11:31:03.237Z,38.25
2019-02-12T11:33:32.493Z,33.67
2019-02-12T11:36:01.777Z,33.83
2019-02-12T11:38:30.987Z,31.33
2019-02-12T11:41:00.138Z,27.87
2019-02-12T11:43:29.584Z,36.85
2019-02-12T11:45:58.904Z,31.97
2019-02-12T11:48:28.250Z,40.85
2019-02-12T11:50:57.743Z,28.57
2019-02-12T11:53:28.086Z,33.53
2019-02-12T11:56:00.922Z,28.07
2019-02-12T11:58:31.630Z,27.42
2019-02-12T12:01:03.372Z,26.12
2019-02-12T12:03:32.680Z,32.35
2019-02-12T12:06:01.924Z,36.25
2019-02-12T12:11:33.364Z,22.75
2019-02-12T12:14:02.790Z,20.52
2019-02-12T12:16:32.148Z,24.70
2019-02-12T12:19:01.365Z,18.50
2019-02-12T12:21:30.654Z,28.32
2019-02-12T12:24:00.035Z,20.70
2019-02-12T12:26:29.336Z,24.30
2019-02-12T12:28:58.494Z,24.00
2019-02-12T12:31:27.738Z,24.85
2019-02-12T12:33:58.264Z,27.95
2019-02-12T12:36:27.605Z,27.13
2019-02-12T12:38:56.862Z,21.15
2019-02-12T12:41:26.032Z,24.00
2019-02-12T12:43:55.867Z,22.30
2019-02-12T12:46:25.280Z,24.40
2019-02-12T12:48:54.561Z,20.77
2019-02-12T12:51:23.821Z,25.97
2019-02-12T12:53:53.123Z,17.62
2019-02-12T12:56:22.465Z,16.65
2019-02-12T12:58:51.641Z,18.32
2019-02-12T13:01:20.891Z,23.02
2019-02-12T13:03:52.448Z,22.20
2019-02-12T13:06:23.209Z,20.52
2019-02-12T13:08:54.210Z,14.45
2019-02-12T13:11:26.626Z,16.87
2019-02-12T13:13:56.986Z,15.63
2019-02-12T13:16:27.998Z,14.95
2019-02-12T13:18:57.266Z,14.28
2019-02-12T13:21:26.768Z,22.07
2019-02-12T13:23:56.320Z,18.30
2019-02-12T13:26:25.488Z,16.45
2019-02-12T13:28:55.387Z,23.15
2019-02-12T13:31:26.676Z,12.20
2019-02-12T13:33:59.155Z,17.87
2019-02-12T13:36:28.563Z,15.28
2019-02-12T13:38:57.918Z,18.42
2019-02-12T13:41:27.880Z,12.20
2019-02-12T13:43:58.295Z,13.90
2019-02-12T13:46:28.194Z,21.68
2019-02-12T13:48:57.602Z,20.37
2019-02-12T13:51:27.184Z,16.42
2019-02-12T13:53:59.506Z,10.98
2019-02-12T13:56:30.217Z,11.57
2019-02-12T13:58:59.665Z,17.35
2019-02-12T14:01:31.093Z,16.95
2019-02-12T14:04:00.424Z,16.35
2019-02-12T14:06:29.711Z,10.55
2019-02-12T14:08:59.131Z,22.85
2019-02-12T14:11:28.373Z,11.22
2019-02-12T14:13:58.709Z,11.05
2019-02-12T14:16:28.034Z,9.03
2019-02-12T14:18:57.357Z,29.48
2019-02-12T14:21:26.589Z,13.35
2019-02-12T14:23:56.067Z,10.88
2019-02-12T14:26:25.269Z,22.45
2019-02-12T14:28:54.649Z,16.82
2019-02-12T14:31:25.984Z,15.55
2019-02-12T14:33:55.270Z,14.45
2019-02-12T14:36:28.411Z,15.05
2019-02-12T14:38:57.710Z,11.88
2019-02-12T14:41:27.091Z,12.58
2019-02-12T14:43:56.307Z,15.78
2019-02-12T14:46:25.512Z,23.35
2019-02-12T14:48:55.581Z,15.68
2019-02-12T14:51:25.245Z,9.93
2019-02-12T14:53:54.559Z,15.80
2019-02-12T14:56:27.243Z,19.17
2019-02-12T14:58:58.329Z,11.00
2019-02-12T15:01:27.663Z,12.05
2019-02-12T15:03:56.993Z,13.90
2019-02-12T15:06:26.519Z,12.63
2019-02-12T15:08:56.679Z,12.65
2019-02-12T15:11:27.281Z,16.65
2019-02-12T15:13:57.547Z,10.13
2019-02-12T15:16:28.281Z,16.77
2019-02-12T15:18:57.692Z,15.05
2019-02-12T15:21:27.083Z,15.72
2019-02-12T15:23:56.494Z,13.85
2019-02-12T15:26:27.291Z,7.80
2019-02-12T15:28:56.622Z,8.78
2019-02-12T15:31:26.014Z,12.45
2019-02-12T15:33:55.380Z,14.23
2019-02-12T15:36:24.664Z,15.43
2019-02-12T15:38:54.496Z,39.92
2019-02-12T15:41:24.279Z,15.93
2019-02-12T15:43:53.574Z,11.65
2019-02-12T15:46:23.284Z,8.90
2019-02-12T15:48:52.794Z,15.10
2019-02-12T15:51:23.719Z,14.55
2019-02-12T15:53:53.128Z,14.45
2019-02-12T15:56:22.318Z,13.98
2019-02-12T15:58:52.182Z,17.35
2019-02-12T16:01:24.210Z,16.27
2019-02-12T16:03:53.451Z,14.20
2019-02-12T16:06:22.762Z,17.55
2019-02-12T16:08:53.844Z,11.63
2019-02-12T16:11:24.028Z,11.03
2019-02-12T16:13:54.758Z,17.73
2019-02-12T16:16:24.959Z,13.93
2019-02-12T16:18:56.015Z,15.65
2019-02-12T16:21:25.242Z,17.80
2019-02-12T16:23:58.191Z,20.10
2019-02-12T16:26:28.337Z,14.10
2019-02-12T16:28:58.536Z,21.82
2019-02-12T16:31:28.491Z,20.40
2019-02-12T16:33:59.323Z,13.13
2019-02-12T16:36:29.923Z,18.80
2019-02-12T16:39:04.172Z,17.27
2019-02-12T16:41:31.932Z,15.98
2019-02-12T16:44:03.586Z,12.20
2019-02-12T16:46:33.024Z,13.72
2019-02-12T16:49:04.487Z,19.12
2019-02-12T16:51:33.545Z,15.75
2019-02-12T16:54:03.014Z,17.82
2019-02-12T16:56:32.371Z,20.12
2019-02-12T16:59:03.517Z,16.12
2019-02-12T17:01:32.543Z,21.80
2019-02-12T17:04:01.950Z,17.42
2019-02-12T17:06:31.200Z,24.15
2019-02-12T17:09:00.518Z,24.25
2019-02-12T17:11:29.782Z,23.73
2019-02-12T17:18:38.417Z,16.35
2019-02-12T17:21:09.348Z,16.10
2019-02-12T17:23:43.427Z,19.10
2019-02-12T17:26:16.513Z,14.30
2019-02-12T17:28:45.302Z,20.95
2019-02-12T17:31:14.979Z,20.68
2019-02-12T17:33:45.026Z,23.90
2019-02-12T17:36:14.344Z,20.95
2019-02-12T17:38:43.534Z,17.12
2019-02-12T17:41:12.819Z,15.78
2019-02-12T17:43:42.276Z,19.50
2019-02-12T17:46:11.779Z,20.80
2019-02-12T17:48:41.304Z,22.85
2019-02-12T17:51:10.767Z,18.12
2019-02-12T17:53:40.318Z,20.70
2019-02-12T17:56:09.966Z,18.27
2019-02-12T17:58:39.382Z,24.00
2019-02-12T18:01:09.150Z,18.87
2019-02-12T18:03:39.532Z,21.52
2019-02-12T18:06:09.065Z,21.75
2019-02-12T18:08:38.438Z,20.70
2019-02-12T18:11:10.642Z,19.75
2019-02-12T18:13:39.432Z,16.30
2019-02-12T18:16:08.754Z,22.35
2019-02-12T18:18:38.474Z,17.07
2019-02-12T18:21:07.940Z,18.17
2019-02-12T18:23:37.339Z,26.25
2019-02-12T18:26:06.674Z,25.12
2019-02-12T18:28:35.974Z,23.40
2019-02-12T18:31:05.142Z,20.37
2019-02-12T18:33:34.604Z,16.70
2019-02-12T18:36:04.118Z,20.80
2019-02-12T18:38:35.346Z,20.32
2019-02-12T18:41:04.682Z,18.55
2019-02-12T18:43:33.986Z,14.20
2019-02-12T18:46:03.426Z,19.77
2019-02-12T18:48:33.338Z,17.95
2019-02-12T18:51:03.292Z,24.63
2019-02-12T18:53:33.114Z,17.73
2019-02-12T18:56:09.382Z,17.65
2019-02-12T18:58:40.138Z,20.97
2019-02-12T19:01:09.506Z,20.95
2019-02-12T19:03:38.969Z,27.30
2019-02-12T19:06:08.285Z,20.23
2019-02-12T19:08:37.674Z,16.87
2019-02-12T19:11:07.503Z,22.20
2019-02-12T19:13:36.916Z,21.35
2019-02-12T19:16:06.303Z,26.93
2019-02-12T19:18:35.560Z,24.90
2019-02-12T19:21:05.102Z,23.12
2019-02-12T19:23:34.322Z,31.97
2019-02-12T19:26:05.172Z,33.95
2019-02-12T19:28:36.144Z,23.85
2019-02-12T19:31:05.469Z,22.60
2019-02-12T19:33:35.095Z,24.32
2019-02-12T19:36:04.600Z,19.17
2019-02-12T19:38:34.124Z,22.40
2019-02-12T19:41:03.494Z,22.15
2019-02-12T19:43:32.897Z,19.77
2019-02-12T19:46:03.486Z,24.98
2019-02-12T19:48:32.938Z,22.77
2019-02-12T19:51:02.610Z,22.07
2019-02-12T19:53:31.858Z,19.48
2019-02-12T19:56:01.194Z,18.60
2019-02-12T19:58:30.582Z,22.25
2019-02-12T20:00:59.830Z,18.73
2019-02-12T20:03:29.186Z,23.67
2019-02-12T20:05:58.684Z,19.20
2019-02-12T20:08:32.678Z,18.17
2019-02-12T20:11:01.986Z,16.40
2019-02-12T20:13:31.263Z,17.67
2019-02-12T20:16:00.674Z,18.57
2019-02-12T20:18:30.430Z,20.82
2019-02-12T20:20:59.645Z,15.13
2019-02-12T20:23:28.803Z,14.60
2019-02-12T20:25:58.484Z,18.82
2019-02-12T20:28:31.746Z,12.37
2019-02-12T20:31:02.902Z,16.70
2019-02-12T20:33:35.419Z,18.07
2019-02-12T20:36:04.975Z,19.85
2019-02-12T20:38:35.126Z,17.82
2019-02-12T20:41:04.493Z,34.67
2019-02-12T20:43:33.786Z,16.97
2019-02-12T20:46:05.408Z,16.45
2019-02-12T20:48:34.756Z,15.15
2019-02-12T20:51:04.073Z,18.52
2019-02-12T20:53:33.465Z,16.62
2019-02-12T20:56:02.863Z,13.83
2019-02-12T20:58:32.268Z,14.70
2019-02-12T21:01:02.842Z,17.87
2019-02-12T21:03:32.296Z,13.62
2019-02-12T21:06:03.665Z,19.35
2019-02-12T21:08:33.594Z,19.15
2019-02-12T21:11:02.902Z,14.10
2019-02-12T21:13:33.642Z,17.98
2019-02-12T21:16:03.459Z,18.45
2019-02-12T21:18:33.337Z,21.77
2019-02-12T21:21:15.529Z,15.03
2019-02-12T21:23:45.116Z,17.12
2019-02-12T21:26:14.556Z,16.00
2019-02-12T21:28:46.022Z,19.30
2019-02-12T21:31:22.516Z,21.87
2019-02-12T21:33:50.509Z,19.57
2019-02-12T21:36:19.840Z,18.80
2019-02-12T21:38:49.140Z,22.30
2019-02-12T21:41:18.432Z,19.27
2019-02-12T21:43:50.274Z,16.23
2019-02-12T21:46:19.560Z,15.68
2019-02-12T21:48:48.903Z,17.95
2019-02-12T21:51:18.226Z,16.02
2019-02-12T21:53:47.571Z,16.93
2019-02-12T21:56:16.808Z,17.10
2019-02-12T21:58:45.958Z,17.07
2019-02-12T22:01:17.139Z,19.40
2019-02-12T22:03:46.214Z,13.55
2019-02-12T22:06:15.495Z,17.10
2019-02-12T22:08:44.622Z,13.30
2019-02-12T22:11:13.775Z,25.20
2019-02-12T22:13:43.008Z,15.30
2019-02-12T22:16:12.980Z,15.53
2019-02-12T22:18:42.214Z,17.40
2019-02-12T22:21:11.521Z,14.47
2019-02-12T22:23:40.774Z,17.77
2019-02-12T22:26:10.043Z,13.35
2019-02-12T22:28:39.400Z,12.40
2019-02-12T22:31:08.669Z,15.50
2019-02-12T22:33:37.841Z,14.93
2019-02-12T22:36:07.093Z,13.08
2019-02-12T22:38:36.254Z,15.45
2019-02-12T22:41:05.429Z,14.55
2019-02-12T22:43:34.786Z,12.90
2019-02-12T22:46:04.138Z,18.35
2019-02-12T22:48:33.414Z,16.27
2019-02-12T22:51:04.706Z,15.72
2019-02-12T22:53:33.915Z,14.43
2019-02-12T22:56:03.361Z,15.00
2019-02-12T22:58:33.103Z,17.70
2019-02-12T23:01:09.241Z,18.92
2019-02-12T23:03:38.615Z,16.87
2019-02-12T23:06:07.967Z,12.45
2019-02-12T23:08:37.424Z,13.75
2019-02-12T23:11:06.833Z,11.90
2019-02-12T23:13:36.050Z,15.78
2019-02-12T23:16:05.359Z,12.90
2019-02-12T23:18:34.805Z,15.30
2019-02-12T23:21:04.243Z,15.53
2019-02-12T23:23:33.455Z,14.65
2019-02-12T23:26:02.621Z,15.05
2019-02-12T23:28:32.191Z,16.52
2019-02-12T23:31:01.578Z,17.37
2019-02-12T23:33:30.869Z,16.77
2019-02-12T23:36:00.392Z,16.37
2019-02-12T23:38:30.747Z,12.82
2019-02-12T23:40:59.958Z,12.33
2019-02-12T23:43:31.823Z,17.17
2019-02-12T23:46:01.422Z,12.50
2019-02-12T23:48:33.593Z,13.55
2019-02-12T23:51:03.853Z,13.48
2019-02-12T23:53:33.229Z,13.08
2019-02-12T23:56:02.535Z,23.77
2019-02-12T23:58:31.756Z,14.68
